Time;durP1;ratioP1;P1;durP2;ratioP2;P2;SDS_P1;SDS_P2;PMS_P1;PMS_P2;Temp;Humidity;BMP_temperature;BMP_pressure;BME280_temperature;BME280_humidity;BME280_pressure;Samples;Min_cycle;Max_cycle;Signal;HPM_P1;HPM_P2
2022/09/16 00:01:20;;;;;;;20.40;17.00;;;;;;;12.64;100.00;96862.70;108995;1281;22642;-90
2022/09/16 00:03:54;;;;;;;19.90;17.30;;;;;;;12.61;100.00;96868.31;108925;1281;22577;-91
2022/09/16 00:06:28;;;;;;;21.20;17.60;;;;;;;12.62;100.00;96867.55;105997;1281;22865;-91
2022/09/16 00:09:01;;;;;;;21.50;19.50;;;;;;;12.61;100.00;96865.84;105801;1282;25605;-90
2022/09/16 00:11:34;;;;;;;24.50;22.00;;;;;;;12.60;100.00;96872.75;105912;1281;24250;-91
2022/09/16 00:14:03;;;;;;;26.60;23.80;;;;;;;12.58;100.00;96873.27;105881;1281;22541;-92
2022/09/16 00:16:31;;;;;;;24.70;22.30;;;;;;;12.55;100.00;96879.45;105959;1281;25251;-90
2022/09/16 00:18:59;;;;;;;26.40;23.80;;;;;;;12.55;100.00;96882.84;105930;1281;22805;-92
2022/09/16 00:21:29;;;;;;;21.70;18.80;;;;;;;12.53;100.00;96883.41;105937;1281;23270;-91
2022/09/16 00:23:57;;;;;;;20.70;17.20;;;;;;;12.51;100.00;96883.01;105923;1282;25358;-91
2022/09/16 00:26:25;;;;;;;19.50;17.40;;;;;;;12.50;100.00;96883.45;105842;1281;25517;-91
2022/09/16 00:28:53;;;;;;;19.00;17.00;;;;;;;12.50;100.00;96891.79;105861;1281;24140;-90
2022/09/16 00:31:21;;;;;;;23.90;19.90;;;;;;;12.47;100.00;96889.63;106003;1281;23366;-90
2022/09/16 00:33:49;;;;;;;21.30;18.90;;;;;;;12.43;100.00;96889.80;106076;1281;22560;-91
2022/09/16 00:36:19;;;;;;;21.00;18.50;;;;;;;12.42;100.00;96890.08;106004;1281;22631;-91
2022/09/16 00:38:54;;;;;;;22.70;20.40;;;;;;;12.40;100.00;96887.15;105872;1281;24228;-91
2022/09/16 00:41:31;;;;;;;23.90;18.80;;;;;;;12.38;100.00;96889.16;105786;1281;24250;-90
2022/09/16 00:44:03;;;;;;;20.70;18.70;;;;;;;12.38;100.00;96894.00;105916;1281;23202;-92
2022/09/16 00:46:40;;;;;;;25.70;18.60;;;;;;;12.38;100.00;96893.80;105897;1281;24928;-91
2022/09/16 00:49:11;;;;;;;25.60;19.10;;;;;;;12.36;100.00;96886.93;105923;1281;22571;-92
2022/09/16 00:51:40;;;;;;;19.70;17.90;;;;;;;12.35;100.00;96883.42;105779;1281;26017;-92
2022/09/16 00:54:09;;;;;;;19.80;17.10;;;;;;;12.35;100.00;96882.19;105893;1281;25364;-92
2022/09/16 00:56:42;;;;;;;18.60;16.20;;;;;;;12.35;100.00;96880.33;106058;1281;22545;-92
2022/09/16 00:59:26;;;;;;;19.40;17.50;;;;;;;12.34;100.00;96881.84;106151;1281;24286;-90
2022/09/16 01:01:56;;;;;;;20.70;17.70;;;;;;;12.30;100.00;96885.11;105915;1281;22709;-92
2022/09/16 01:04:43;;;;;;;19.50;16.80;;;;;;;12.27;100.00;96882.47;105901;1282;22580;-92
2022/09/16 01:07:12;;;;;;;19.80;16.70;;;;;;;12.27;100.00;96886.04;105979;1282;22560;-90
2022/09/16 01:09:40;;;;;;;21.60;16.80;;;;;;;12.29;100.00;96888.68;106152;1281;24230;-91
2022/09/16 01:12:08;;;;;;;23.70;17.50;;;;;;;12.30;100.00;96888.81;106331;1281;22568;-89
2022/09/16 01:14:53;;;;;;;21.20;15.40;;;;;;;12.31;100.00;96892.01;108760;1281;22571;-89
2022/09/16 01:17:36;;;;;;;17.10;15.30;;;;;;;12.33;100.00;96887.05;108499;1281;24394;-91
2022/09/16 01:20:31;;;;;;;19.60;16.20;;;;;;;12.34;100.00;96889.39;108202;1281;23000;-88
2022/09/16 01:23:09;;;;;;;21.10;15.40;;;;;;;12.33;100.00;96893.23;109070;1281;22582;-86
2022/09/16 01:26:01;;;;;;;19.20;15.70;;;;;;;12.32;100.00;96893.34;107756;1281;22619;-91
2022/09/16 01:28:47;;;;;;;20.90;15.80;;;;;;;12.33;100.00;96896.95;106562;1281;22852;-91
2022/09/16 01:31:34;;;;;;;19.70;16.90;;;;;;;12.34;100.00;96895.50;106133;1281;22504;-93
2022/09/16 01:34:13;;;;;;;18.80;16.60;;;;;;;12.31;100.00;96891.70;106134;1281;22730;-92
2022/09/16 01:37:06;;;;;;;18.90;16.90;;;;;;;12.28;100.00;96887.60;105974;1281;22562;-91
2022/09/16 01:40:12;;;;;;;19.40;17.60;;;;;;;12.26;100.00;96893.39;106086;1281;24445;-91
2022/09/16 01:43:06;;;;;;;19.70;16.30;;;;;;;12.22;100.00;96893.17;106176;1281;23914;-92
2022/09/16 01:45:57;;;;;;;18.20;15.80;;;;;;;12.20;100.00;96891.72;105908;1281;22584;-91
2022/09/16 01:48:42;;;;;;;18.80;15.70;;;;;;;12.19;100.00;96891.68;105926;1281;22637;-91
2022/09/16 01:51:16;;;;;;;18.00;14.70;;;;;;;12.19;100.00;96895.46;105929;1281;22697;-92
2022/09/16 01:53:51;;;;;;;19.80;16.30;;;;;;;12.14;100.00;96893.38;105903;1281;25281;-91
2022/09/16 01:56:25;;;;;;;19.90;17.00;;;;;;;12.09;100.00;96892.51;105742;1282;22543;-92
2022/09/16 01:59:15;;;;;;;18.50;16.40;;;;;;;12.07;100.00;96888.02;105904;1281;22666;-90
2022/09/16 02:01:46;;;;;;;21.30;16.30;;;;;;;12.07;100.00;96884.69;106058;1281;22536;-90
2022/09/16 02:04:22;;;;;;;20.60;15.40;;;;;;;12.06;100.00;96885.07;106092;1281;22705;-91
2022/09/16 02:06:53;;;;;;;21.30;15.90;;;;;;;12.04;100.00;96890.86;105806;1282;23974;-92
2022/09/16 02:09:26;;;;;;;17.00;14.80;;;;;;;12.05;100.00;96891.05;105904;1281;22633;-91
2022/09/16 02:12:04;;;;;;;16.30;14.40;;;;;;;12.05;100.00;96885.56;105632;1281;22563;-92
2022/09/16 02:14:38;;;;;;;17.00;15.00;;;;;;;12.01;100.00;96889.38;105806;1281;24250;-91
2022/09/16 02:17:10;;;;;;;16.80;14.50;;;;;;;11.98;100.00;96895.05;105916;1281;22713;-89
2022/09/16 02:19:51;;;;;;;20.80;14.50;;;;;;;11.97;100.00;96893.70;105920;1281;24290;-92
2022/09/16 02:22:29;;;;;;;17.20;14.20;;;;;;;11.93;100.00;96895.17;105899;1281;22718;-90
2022/09/16 02:24:58;;;;;;;20.20;14.80;;;;;;;11.92;100.00;96897.14;108098;1281;22580;-87
2022/09/16 02:27:30;;;;;;;17.40;15.30;;;;;;;11.90;100.00;96892.89;109116;1281;22642;-89
2022/09/16 02:30:10;;;;;;;19.70;14.80;;;;;;;11.87;100.00;96894.40;108760;1281;22673;-92
2022/09/16 02:32:42;;;;;;;16.90;14.10;;;;;;;11.83;100.00;96892.02;105843;1281;24286;-92
2022/09/16 02:35:15;;;;;;;16.50;13.90;;;;;;;11.79;100.00;96889.94;105852;1281;22667;-91
2022/09/16 02:37:51;;;;;;;16.60;14.10;;;;;;;11.75;100.00;96889.80;105935;1281;25296;-90
2022/09/16 02:40:24;;;;;;;19.20;14.30;;;;;;;11.75;100.00;96888.64;105977;1281;22707;-91
2022/09/16 02:42:53;;;;;;;16.00;14.20;;;;;;;11.73;100.00;96893.67;106078;1281;28071;-92
2022/09/16 02:45:25;;;;;;;15.40;13.30;;;;;;;11.71;100.00;96895.30;105894;1281;22537;-90
2022/09/16 02:48:04;;;;;;;18.30;14.20;;;;;;;11.68;100.00;96902.23;105951;1281;22543;-91
2022/09/16 02:50:44;;;;;;;19.30;13.40;;;;;;;11.63;100.00;96906.38;105984;1281;24297;-92
2022/09/16 02:53:37;;;;;;;23.20;14.80;;;;;;;11.57;100.00;96903.88;105930;1281;24369;-91
2022/09/16 02:56:16;;;;;;;16.50;14.80;;;;;;;11.53;100.00;96910.13;105937;1281;24291;-91
2022/09/16 02:58:44;;;;;;;18.80;13.80;;;;;;;11.48;100.00;96910.92;105852;1281;22720;-92
2022/09/16 03:01:12;;;;;;;17.30;13.20;;;;;;;11.44;100.00;96906.45;105786;1281;22582;-91
2022/09/16 03:03:41;;;;;;;17.90;13.40;;;;;;;11.39;100.00;96904.97;105903;1281;22542;-90
2022/09/16 03:06:08;;;;;;;16.10;14.40;;;;;;;11.36;100.00;96907.27;105898;1281;23006;-91
2022/09/16 03:08:38;;;;;;;14.90;13.30;;;;;;;11.35;100.00;96901.67;105911;1281;24207;-91
2022/09/16 03:11:34;;;;;;;14.50;13.00;;;;;;;11.32;100.00;96899.63;105823;1281;22536;-90
2022/09/16 03:14:22;;;;;;;16.00;13.20;;;;;;;11.28;100.00;96901.39;105841;1281;26764;-90
2022/09/16 03:17:14;;;;;;;16.30;13.20;;;;;;;11.25;100.00;96900.81;105894;1281;22484;-89
2022/09/16 03:20:01;;;;;;;13.50;12.10;;;;;;;11.23;100.00;96893.58;105972;1281;25400;-91
2022/09/16 03:22:37;;;;;;;15.30;11.90;;;;;;;11.17;100.00;96886.33;106071;1281;25243;-91
2022/09/16 03:25:23;;;;;;;15.40;13.40;;;;;;;11.12;100.00;96886.61;106262;1281;22495;-92
2022/09/16 03:28:06;;;;;;;15.30;13.70;;;;;;;11.07;100.00;96884.11;105972;1281;22714;-89
2022/09/16 03:30:42;;;;;;;17.30;14.40;;;;;;;11.01;100.00;96882.77;105950;1281;24303;-90
2022/09/16 03:33:33;;;;;;;16.70;13.00;;;;;;;10.96;100.00;96885.85;105961;1281;24389;-89
2022/09/16 03:36:04;;;;;;;17.10;12.30;;;;;;;10.92;100.00;96884.98;105929;1281;24230;-91
2022/09/16 03:38:38;;;;;;;15.80;13.30;;;;;;;10.88;100.00;96887.85;106091;1281;24218;-90
2022/09/16 03:41:08;;;;;;;14.00;12.50;;;;;;;10.85;100.00;96894.72;106122;1281;25339;-92
2022/09/16 03:43:36;;;;;;;14.10;12.40;;;;;;;10.80;100.00;96897.69;106186;1281;22544;-91
2022/09/16 03:46:10;;;;;;;14.60;13.10;;;;;;;10.76;100.00;96901.23;105897;1282;25379;-91
2022/09/16 03:48:38;;;;;;;14.80;12.60;;;;;;;10.69;100.00;96898.81;105901;1281;22665;-92
2022/09/16 03:51:06;;;;;;;15.40;12.60;;;;;;;10.65;100.00;96899.48;106068;1281;24214;-90
2022/09/16 03:53:34;;;;;;;14.40;13.00;;;;;;;10.61;100.00;96900.88;106042;1281;22687;-91
2022/09/16 03:56:01;;;;;;;16.30;12.40;;;;;;;10.59;100.00;96898.25;105941;1281;22603;-92
2022/09/16 03:58:29;;;;;;;17.40;13.90;;;;;;;10.59;100.00;96903.77;105963;1281;23972;-92
2022/09/16 04:00:57;;;;;;;16.40;13.30;;;;;;;10.57;100.00;96899.91;105871;1281;22641;-91
2022/09/16 04:03:25;;;;;;;14.00;12.40;;;;;;;10.55;100.00;96900.52;105849;1281;22734;-90
2022/09/16 04:05:59;;;;;;;20.10;13.10;;;;;;;10.55;100.00;96902.84;105841;1281;22475;-91
2022/09/16 04:08:27;;;;;;;18.00;13.20;;;;;;;10.54;100.00;96903.58;105930;1281;22670;-91
2022/09/16 04:10:58;;;;;;;15.60;12.70;;;;;;;10.55;100.00;96895.98;105798;1282;22541;-89
2022/09/16 04:13:29;;;;;;;19.10;13.50;;;;;;;10.55;100.00;96894.63;105929;1281;22951;-89
2022/09/16 04:15:59;;;;;;;19.10;13.80;;;;;;;10.58;100.00;96900.73;106149;1281;23081;-89
2022/09/16 04:18:29;;;;;;;16.80;13.40;;;;;;;10.57;100.00;96907.02;106284;1281;22658;-90
2022/09/16 04:20:58;;;;;;;18.90;13.60;;;;;;;10.54;100.00;96907.81;106680;1281;23145;-88
2022/09/16 04:23:27;;;;;;;17.70;13.40;;;;;;;10.53;100.00;96909.74;108954;1281;22624;-90
2022/09/16 04:25:56;;;;;;;16.90;12.10;;;;;;;10.52;100.00;96918.86;109047;1281;22695;-90
2022/09/16 04:28:32;;;;;;;13.10;11.50;;;;;;;10.52;100.00;96918.02;109139;1281;22630;-90
2022/09/16 04:31:02;;;;;;;17.10;13.20;;;;;;;10.52;100.00;96920.02;108588;1280;22620;-92
2022/09/16 04:33:32;;;;;;;13.60;12.20;;;;;;;10.52;100.00;96921.09;106833;1281;22602;-90
2022/09/16 04:36:05;;;;;;;14.60;13.00;;;;;;;10.51;100.00;96922.05;107022;1283;22607;-91
2022/09/16 04:38:36;;;;;;;15.60;13.10;;;;;;;10.48;100.00;96920.25;107341;1281;22570;-91
2022/09/16 04:41:11;;;;;;;16.40;13.30;;;;;;;10.47;100.00;96920.35;106076;1281;22874;-93
2022/09/16 04:43:40;;;;;;;14.30;11.60;;;;;;;10.47;100.00;96922.98;105947;1285;24239;-90
2022/09/16 04:46:08;;;;;;;16.00;11.90;;;;;;;10.48;100.00;96923.55;105807;1283;22483;-90
2022/09/16 04:48:36;;;;;;;12.70;11.40;;;;;;;10.47;100.00;96916.46;106121;1281;22553;-91
2022/09/16 04:51:10;;;;;;;13.20;11.80;;;;;;;10.49;100.00;96914.66;105812;1281;23612;-91
2022/09/16 04:53:40;;;;;;;15.30;13.00;;;;;;;10.51;100.00;96918.47;105877;1281;23875;-92
2022/09/16 04:56:23;;;;;;;18.80;14.70;;;;;;;10.51;100.00;96920.30;105819;1281;22724;-90
2022/09/16 04:58:57;;;;;;;16.00;12.80;;;;;;;10.50;100.00;96920.40;105920;1281;24332;-90
2022/09/16 05:01:30;;;;;;;18.20;14.10;;;;;;;10.51;100.00;96920.37;108984;1281;22827;-90
2022/09/16 05:04:01;;;;;;;17.40;12.60;;;;;;;10.56;100.00;96922.95;109263;1281;22709;-90
2022/09/16 05:06:32;;;;;;;15.60;12.10;;;;;;;10.64;100.00;96920.73;108563;1281;22568;-91
2022/09/16 05:09:01;;;;;;;13.40;12.00;;;;;;;10.72;100.00;96923.40;105856;1281;25568;-92
2022/09/16 05:11:36;;;;;;;16.50;12.80;;;;;;;10.81;100.00;96923.80;105684;1284;22689;-90
2022/09/16 05:14:07;;;;;;;16.40;14.40;;;;;;;10.86;100.00;96923.35;105773;1281;22648;-91
2022/09/16 05:16:35;;;;;;;19.80;14.40;;;;;;;10.93;100.00;96921.21;105692;1281;22597;-91
2022/09/16 05:19:06;;;;;;;19.10;15.20;;;;;;;11.00;100.00;96924.86;105770;1281;23393;-91
2022/09/16 05:21:36;;;;;;;15.20;13.60;;;;;;;11.09;100.00;96925.92;105822;1281;23109;-92
2022/09/16 05:24:07;;;;;;;15.20;11.90;;;;;;;11.21;100.00;96929.86;105941;1281;25235;-90
2022/09/16 05:26:37;;;;;;;22.70;18.40;;;;;;;11.30;100.00;96931.67;105886;1281;22550;-90
2022/09/16 05:29:10;;;;;;;24.20;19.80;;;;;;;11.36;100.00;96930.30;105794;1284;24762;-91
2022/09/16 05:31:40;;;;;;;21.10;16.60;;;;;;;11.40;100.00;96927.65;105904;1281;22571;-92
2022/09/16 05:34:17;;;;;;;28.60;15.90;;;;;;;11.43;100.00;96924.92;105997;1281;22573;-92
2022/09/16 05:36:47;;;;;;;20.70;15.60;;;;;;;11.47;100.00;96920.96;106296;1281;25399;-91
2022/09/16 05:39:17;;;;;;;26.40;17.90;;;;;;;11.49;100.00;96921.97;106392;1283;25367;-90
2022/09/16 05:41:58;;;;;;;25.50;22.00;;;;;;;11.48;100.00;96931.52;106061;1281;25273;-91
2022/09/16 05:44:27;;;;;;;31.70;29.00;;;;;;;11.48;100.00;96930.30;105979;1281;22564;-92
2022/09/16 05:46:56;;;;;;;31.50;28.60;;;;;;;11.47;100.00;96923.44;105979;1281;22569;-89
2022/09/16 05:49:24;;;;;;;21.40;19.30;;;;;;;11.47;100.00;96921.61;106102;1281;23279;-92
2022/09/16 05:51:54;;;;;;;18.50;16.60;;;;;;;11.45;100.00;96919.84;106067;1281;25838;-91
2022/09/16 05:54:23;;;;;;;18.10;15.80;;;;;;;11.48;100.00;96921.63;105899;1281;22563;-92
2022/09/16 05:56:52;;;;;;;17.50;15.10;;;;;;;11.47;100.00;96921.16;106071;1281;22544;-92
2022/09/16 05:59:22;;;;;;;16.10;14.40;;;;;;;11.46;100.00;96924.64;105960;1281;23949;-93
2022/09/16 06:01:50;;;;;;;19.00;15.90;;;;;;;11.45;100.00;96931.63;105887;1281;22578;-91
2022/09/16 06:04:18;;;;;;;19.60;16.40;;;;;;;11.47;100.00;96925.09;105746;1281;24285;-92
2022/09/16 06:06:46;;;;;;;19.90;16.30;;;;;;;11.53;100.00;96927.14;105930;1281;22534;-92
2022/09/16 06:09:16;;;;;;;22.40;16.70;;;;;;;11.58;100.00;96927.36;105768;1281;22542;-92
2022/09/16 06:11:47;;;;;;;32.30;19.60;;;;;;;11.64;100.00;96929.86;105944;1281;22624;-90
2022/09/16 06:14:18;;;;;;;29.30;18.30;;;;;;;11.61;100.00;96926.23;105854;1281;22696;-91
2022/09/16 06:16:48;;;;;;;18.90;16.80;;;;;;;11.68;100.00;96933.58;105871;1281;23405;-92
2022/09/16 06:19:17;;;;;;;25.90;18.60;;;;;;;11.72;100.00;96930.39;105982;1281;24213;-92
2022/09/16 06:21:46;;;;;;;18.90;15.20;;;;;;;11.77;100.00;96930.45;105774;1281;22769;-90
2022/09/16 06:24:16;;;;;;;17.50;13.70;;;;;;;11.84;100.00;96927.23;105915;1281;22601;-92
2022/09/16 06:26:46;;;;;;;21.20;16.20;;;;;;;11.90;100.00;96922.52;106018;1281;24212;-91
2022/09/16 06:29:15;;;;;;;15.70;14.20;;;;;;;11.97;100.00;96915.52;105785;1283;25598;-92
2022/09/16 06:31:43;;;;;;;15.80;13.90;;;;;;;12.04;100.00;96907.35;105884;1281;22562;-91
2022/09/16 06:34:17;;;;;;;18.00;15.00;;;;;;;12.09;100.00;96903.69;106098;1281;22542;-90
2022/09/16 06:36:46;;;;;;;26.40;23.40;;;;;;;12.23;100.00;96909.42;106040;1282;22553;-92
2022/09/16 06:39:16;;;;;;;24.00;21.00;;;;;;;12.44;100.00;96917.69;106008;1281;22564;-92
2022/09/16 06:41:48;;;;;;;15.90;14.10;;;;;;;12.63;100.00;96925.59;105877;1281;25283;-91
2022/09/16 06:44:16;;;;;;;19.30;16.90;;;;;;;12.65;100.00;96922.55;106041;1283;25238;-91
2022/09/16 06:46:44;;;;;;;19.30;15.20;;;;;;;12.68;100.00;96926.58;106063;1281;25357;-92
2022/09/16 06:49:12;;;;;;;17.20;13.70;;;;;;;12.76;100.00;96922.45;106112;1281;22724;-92
2022/09/16 06:51:40;;;;;;;19.90;13.30;;;;;;;12.84;100.00;96914.12;105969;1281;22572;-92
2022/09/16 06:54:09;;;;;;;18.40;12.40;;;;;;;12.90;100.00;96917.73;106240;1281;22654;-92
2022/09/16 06:56:40;;;;;;;15.80;12.70;;;;;;;12.95;100.00;96921.38;106200;1281;25446;-93
2022/09/16 06:59:11;;;;;;;12.40;10.80;;;;;;;12.98;100.00;96920.30;106303;1281;22537;-91
2022/09/16 07:01:40;;;;;;;14.70;10.40;;;;;;;13.02;100.00;96917.65;106232;1281;22560;-94
2022/09/16 07:04:14;;;;;;;16.40;11.30;;;;;;;13.05;100.00;96914.48;106602;1282;22564;-93
2022/09/16 07:06:44;;;;;;;13.90;10.30;;;;;;;13.12;100.00;96919.21;106856;1281;22635;-93
2022/09/16 07:09:32;;;;;;;12.50;9.60;;;;;;;13.20;99.95;96922.94;106104;1281;22615;-91
2022/09/16 07:12:01;;;;;;;13.20;9.10;;;;;;;13.26;100.00;96923.97;106230;1281;26523;-92
2022/09/16 07:14:31;;;;;;;13.80;9.60;;;;;;;13.35;100.00;96925.49;106109;1281;22543;-91
2022/09/16 07:17:00;;;;;;;16.70;10.10;;;;;;;13.48;99.88;96928.75;106241;1281;22543;-91
2022/09/16 07:19:28;;;;;;;13.40;9.50;;;;;;;13.49;98.74;96934.73;106180;1281;22701;-91
2022/09/16 07:21:56;;;;;;;12.60;10.60;;;;;;;13.50;97.40;96937.23;106358;1281;25462;-91
2022/09/16 07:24:25;;;;;;;10.40;9.20;;;;;;;13.48;96.54;96933.09;106310;1281;25422;-92
2022/09/16 07:26:53;;;;;;;14.90;9.20;;;;;;;13.54;97.24;96942.86;106166;1281;25457;-92
2022/09/16 07:29:21;;;;;;;12.30;8.50;;;;;;;13.67;96.88;96943.38;106069;1281;25674;-90
2022/09/16 07:31:48;;;;;;;15.00;10.40;;;;;;;13.81;96.31;96946.59;106122;1281;25923;-91
2022/09/16 07:34:18;;;;;;;13.20;9.70;;;;;;;13.87;95.70;96946.43;106088;1281;25409;-92
2022/09/16 07:36:50;;;;;;;13.10;8.70;;;;;;;13.87;93.90;96955.02;106026;1281;25389;-92
2022/09/16 07:39:18;;;;;;;11.80;9.10;;;;;;;13.78;93.44;96948.64;106281;1281;22572;-92
2022/09/16 07:41:47;;;;;;;13.70;9.70;;;;;;;13.74;92.81;96944.19;106182;1281;25371;-92
2022/09/16 07:44:18;;;;;;;13.40;10.60;;;;;;;13.73;92.47;96945.35;109366;1280;22580;-89
2022/09/16 07:46:47;;;;;;;12.40;10.70;;;;;;;13.70;93.17;96946.00;109422;1281;22501;-89
2022/09/16 07:49:16;;;;;;;14.30;9.30;;;;;;;13.70;93.97;96948.19;108206;1281;26520;-92
2022/09/16 07:51:45;;;;;;;10.30;8.50;;;;;;;13.78;93.79;96951.03;106513;1281;22655;-93
2022/09/16 07:54:16;;;;;;;13.60;8.20;;;;;;;13.74;91.45;96953.55;106263;1283;22594;-92
2022/09/16 07:56:44;;;;;;;10.80;8.70;;;;;;;13.65;91.39;96956.48;106466;1281;22684;-92
2022/09/16 07:59:16;;;;;;;12.60;10.00;;;;;;;13.63;91.63;96956.41;106560;1281;22638;-94
2022/09/16 08:01:49;;;;;;;14.10;11.30;;;;;;;13.60;91.61;96965.30;106700;1281;24214;-92
2022/09/16 08:04:19;;;;;;;13.10;10.20;;;;;;;13.58;91.57;96971.05;106327;1281;22599;-92
2022/09/16 08:06:48;;;;;;;11.70;9.40;;;;;;;13.55;91.30;96964.67;106388;1280;23550;-93
2022/09/16 08:09:16;;;;;;;13.40;9.00;;;;;;;13.55;91.68;96964.75;106335;1283;22569;-91
2022/09/16 08:12:06;;;;;;;12.30;10.20;;;;;;;13.52;91.24;96962.27;106182;1281;22672;-92
2022/09/16 08:14:35;;;;;;;15.20;10.40;;;;;;;13.48;90.32;96964.99;106272;1281;22569;-91
2022/09/16 08:17:03;;;;;;;15.40;10.40;;;;;;;13.44;89.90;96965.17;106275;1281;22571;-91
2022/09/16 08:19:31;;;;;;;13.80;11.10;;;;;;;13.42;90.29;96963.95;106172;1281;26715;-92
2022/09/16 08:21:59;;;;;;;14.30;11.00;;;;;;;13.43;91.44;96962.91;106437;1281;24484;-93
2022/09/16 08:24:27;;;;;;;14.80;11.00;;;;;;;13.54;91.83;96960.86;106482;1281;26128;-93
2022/09/16 08:26:55;;;;;;;13.50;11.00;;;;;;;13.68;91.46;96958.80;106714;1281;25935;-93
2022/09/16 08:29:28;;;;;;;12.10;9.40;;;;;;;13.88;91.21;96962.33;106867;1281;22507;-92
2022/09/16 08:31:56;;;;;;;17.10;11.00;;;;;;;14.05;90.92;96959.23;106752;1281;23142;-93
2022/09/16 08:34:24;;;;;;;15.30;11.30;;;;;;;14.18;89.42;96961.33;106770;1281;22559;-92
2022/09/16 08:36:52;;;;;;;17.30;11.80;;;;;;;14.17;88.71;96955.02;106720;1281;22541;-89
2022/09/16 08:39:20;;;;;;;12.40;9.70;;;;;;;14.23;89.47;96955.64;106552;1281;23990;-94
2022/09/16 08:42:02;;;;;;;11.90;9.30;;;;;;;14.32;86.79;96963.72;106563;1281;25299;-92
2022/09/16 08:44:41;;;;;;;21.30;10.40;;;;;;;14.31;86.72;96963.55;106671;1280;22749;-92
2022/09/16 08:47:38;;;;;;;18.50;9.20;;;;;;;14.37;86.11;96959.34;106598;1281;25752;-93
2022/09/16 08:50:15;;;;;;;12.80;8.10;;;;;;;14.49;85.32;96962.70;106362;1281;24218;-88
2022/09/16 08:52:45;;;;;;;9.60;7.70;;;;;;;14.58;85.12;96964.05;106406;1281;22550;-90
2022/09/16 08:55:36;;;;;;;12.40;7.40;;;;;;;14.60;84.28;96968.90;106483;1281;22549;-92
2022/09/16 08:58:18;;;;;;;8.70;6.20;;;;;;;14.71;84.40;96968.09;106549;1281;22720;-92
2022/09/16 09:00:59;;;;;;;11.50;7.10;;;;;;;14.71;81.82;96973.16;106244;1281;23627;-92
2022/09/16 09:03:27;;;;;;;10.50;7.50;;;;;;;14.58;80.57;96963.04;106136;1279;22632;-92
2022/09/16 09:05:57;;;;;;;9.40;6.50;;;;;;;14.51;80.39;96969.59;106719;1281;22752;-92
2022/09/16 09:08:43;;;;;;;8.90;6.10;;;;;;;14.49;81.11;96966.34;106418;1281;22718;-89
2022/09/16 09:11:38;;;;;;;11.90;6.80;;;;;;;14.55;81.68;96961.12;106404;1281;24276;-92
2022/09/16 09:14:50;;;;;;;10.90;6.20;;;;;;;14.70;81.12;96959.72;106448;1281;22761;-92
2022/09/16 09:17:49;;;;;;;8.40;5.70;;;;;;;14.71;78.90;96960.59;105639;1282;24452;-93
2022/09/16 09:20:32;;;;;;;7.90;5.50;;;;;;;14.73;80.02;96958.70;106479;1281;22663;-91
2022/09/16 09:23:18;;;;;;;9.00;5.20;;;;;;;14.98;79.78;96952.98;107357;1281;22711;-90
2022/09/16 09:26:08;;;;;;;6.00;5.00;;;;;;;15.21;79.38;96948.40;106681;1281;23081;-93
2022/09/16 09:28:45;;;;;;;6.50;4.80;;;;;;;15.37;78.74;96952.98;106606;1281;23969;-93
2022/09/16 09:31:39;;;;;;;9.50;6.40;;;;;;;15.41;76.41;96954.39;106450;1281;22583;-93
2022/09/16 09:34:17;;;;;;;8.80;5.20;;;;;;;15.48;75.57;96951.80;106336;1282;23954;-91
2022/09/16 09:37:03;;;;;;;8.20;4.70;;;;;;;15.59;74.78;96949.65;106172;1281;22484;-89
2022/09/16 09:40:11;;;;;;;5.80;4.30;;;;;;;15.67;73.41;96950.93;106329;1281;22663;-92
2022/09/16 09:42:50;;;;;;;8.80;4.30;;;;;;;15.72;72.35;96945.69;106603;1281;24208;-91
2022/09/16 09:45:43;;;;;;;8.00;4.50;;;;;;;15.66;72.43;96951.15;106912;1281;22560;-92
2022/09/16 09:48:20;;;;;;;6.70;4.40;;;;;;;15.66;73.38;96950.05;107040;1281;22599;-91
2022/09/16 09:50:51;;;;;;;7.80;4.20;;;;;;;15.61;70.82;96948.60;106533;1281;22876;-93
2022/09/16 09:53:33;;;;;;;7.40;4.50;;;;;;;15.50;70.31;96950.77;106254;1281;22723;-93
2022/09/16 09:56:24;;;;;;;10.10;4.80;;;;;;;15.41;70.81;96947.16;104296;1281;2559990;-90
2022/09/16 09:58:55;;;;;;;7.30;4.30;;;;;;;15.43;70.55;96949.38;106344;1281;22716;-92
2022/09/16 10:01:23;;;;;;;6.90;4.10;;;;;;;15.47;69.84;96950.56;106260;1279;24350;-91
2022/09/16 10:03:56;;;;;;;6.50;4.00;;;;;;;15.49;70.26;96949.96;106270;1281;22544;-91
2022/09/16 10:06:32;;;;;;;8.30;3.90;;;;;;;15.47;69.92;96951.09;106027;1281;24234;-90
2022/09/16 10:09:00;;;;;;;23.40;10.00;;;;;;;15.41;70.70;96951.20;108992;1281;22536;-90
2022/09/16 10:11:30;;;;;;;12.90;6.40;;;;;;;15.41;69.40;96958.48;109435;1281;22573;-89
2022/09/16 10:14:01;;;;;;;17.00;7.10;;;;;;;15.34;69.16;96951.17;107696;1281;23228;-93
2022/09/16 10:16:44;;;;;;;10.70;6.20;;;;;;;15.32;68.98;96949.73;106398;1281;22571;-91
2022/09/16 10:19:23;;;;;;;17.00;8.50;;;;;;;15.40;69.17;96945.27;106403;1281;22700;-91
2022/09/16 10:22:26;;;;;;;7.30;4.80;;;;;;;15.59;69.38;96948.34;108745;1281;22727;-86
2022/09/16 10:25:09;;;;;;;6.70;4.30;;;;;;;15.79;69.44;96942.19;108568;1281;24266;-87
2022/09/16 10:27:37;;;;;;;7.30;4.30;;;;;;;15.87;68.07;96941.20;108888;1281;22867;-90
2022/09/16 10:30:14;;;;;;;5.60;3.50;;;;;;;15.82;68.17;96942.02;108088;1281;22561;-90
2022/09/16 10:32:57;;;;;;;10.70;3.50;;;;;;;15.65;65.85;96949.86;106497;1281;22761;-91
2022/09/16 10:35:31;;;;;;;6.80;4.40;;;;;;;15.32;68.17;96948.20;107240;1281;22711;-93
2022/09/16 10:38:15;;;;;;;6.80;4.50;;;;;;;14.83;72.81;96948.48;107669;1281;25850;-92
2022/09/16 10:41:18;;;;;;;5.60;4.10;;;;;;;14.36;76.10;96937.72;107501;1281;23228;-92
2022/09/16 10:44:12;;;;;;;8.10;4.80;;;;;;;13.88;78.49;96936.80;106774;1281;23961;-92
2022/09/16 10:47:01;;;;;;;6.40;4.40;;;;;;;13.50;79.34;96940.24;106739;1282;24280;-91
2022/09/16 10:49:39;;;;;;;9.50;5.80;;;;;;;13.27;81.53;96945.34;107084;1281;22804;-93
2022/09/16 10:52:13;;;;;;;6.30;5.00;;;;;;;13.17;81.07;96948.64;107179;1281;22632;-92
2022/09/16 10:54:41;;;;;;;8.60;5.10;;;;;;;13.17;82.37;96946.71;107412;1281;23864;-90
2022/09/16 10:57:40;;;;;;;6.20;4.90;;;;;;;13.18;82.92;96941.71;107382;1281;22584;-95
2022/09/16 11:00:13;;;;;;;8.30;5.60;;;;;;;13.21;83.31;96941.48;106581;1287;24024;-93
2022/09/16 11:02:53;;;;;;;11.20;6.70;;;;;;;13.26;83.60;96940.67;106779;1287;22548;-91
2022/09/16 11:05:30;;;;;;;9.10;6.60;;;;;;;13.29;84.14;96938.30;106674;1287;22503;-92
2022/09/16 11:11:13;;;;;;;8.90;6.90;;;;;;;13.36;84.06;96942.52;107772;1281;23788;-92
2022/09/16 11:13:40;;;;;;;;;;;;;;;13.34;84.21;96945.95;107792;1280;22517;-92
2022/09/16 11:16:22;;;;;;;11.60;7.50;;;;;;;13.34;84.03;96942.16;107777;1281;22625;-93
2022/09/16 11:19:30;;;;;;;11.00;7.10;;;;;;;13.34;84.09;96947.41;107325;1281;22561;-92
2022/09/16 11:22:07;;;;;;;12.70;7.60;;;;;;;13.29;84.99;96946.27;107487;1281;22638;-93
2022/09/16 11:24:57;;;;;;;11.20;7.40;;;;;;;13.26;84.95;96942.36;108024;1281;22609;-94
2022/09/16 11:27:55;;;;;;;7.40;6.10;;;;;;;13.22;85.58;96942.14;107276;1281;22636;-94
2022/09/16 11:30:24;;;;;;;6.90;5.60;;;;;;;13.17;85.81;96944.46;107827;1281;22927;-93
2022/09/16 11:33:22;;;;;;;6.90;5.40;;;;;;;13.12;85.60;96949.71;107302;1281;23023;-92
2022/09/16 11:36:08;;;;;;;9.90;6.10;;;;;;;13.07;84.89;96951.88;107067;1281;22746;-92
2022/09/16 11:38:41;;;;;;;6.90;6.20;;;;;;;12.94;84.58;96953.16;107372;1281;22564;-92
2022/09/16 11:42:01;;;;;;;10.60;7.30;;;;;;;12.86;84.35;96947.23;107274;1281;23867;-92
2022/09/16 11:44:32;;;;;;;6.80;4.90;;;;;;;12.75;84.37;96942.97;106999;1281;22999;-94
2022/09/16 11:47:21;;;;;;;8.20;5.30;;;;;;;12.76;84.60;96935.71;106695;1281;25976;-93
2022/09/16 11:50:17;;;;;;;9.50;7.00;;;;;;;12.84;84.73;96935.99;107136;1281;26583;-91